메인 페이지
METAR-TAF:

METAR-TAF

공항 :

후쿠오카 공항

후쿠오카, 일본

위도: 33-35N, 경도: 130-27E, 고도: 9m

현재 날씨관측

예보는 26분 전, 08:30시(UTC)에 발표되었습니다.
동북동13kt북동풍과 동남동풍을 오가는
온도 25°C
습도 41%
기압 1013 hPa
시정 10km 이상
고도 3500ft 상공 구름 조금
구름 많음

METAR: RJFF 210830Z 07013KT 050V110 9999 FEW035 BKN/// 25/11 Q1013

시각: 17:56 (08:56 UTC)

예보

예보는 3 시간 47분 전, 05:09시(UTC)에 발표되었습니다.
예보 대상 시간: 21일 06시부터 22일 12시까지 (UTC)
동남동10kt
시정 10km 이상
고도 3000ft 상공 구름 조금
고도 4000ft 상공 구름 보통

TAF: RJFF 210509Z 2106/2212 12010KT 9999 FEW030 SCT040

4,000개 이상의 공항 관측 자료 및 예보 (METAR 및 TAF 보고).

지도상에서 검색 가능한 기상관측소가 노란 점과 빨간 점으로 표시되어 있습니다.

기상관측소 명을 보려면 표시 위로 마우스를 이동하세요.

날씨 관측과 예보를 보려면 클릭하세요.

지도 변경 : 확대하려면 엑스 표시가 있는 녹색 버튼, 축소하려면 빼기 표시가 있는 녹색 버튼, 다음 페이지의 지도를 보려면 녹색 화살표를 클릭하세요.


METAR-TAF: